createdAt,value
2023-05-08T00:03:57.955Z,3.20
2023-05-08T00:09:00.263Z,3.13
2023-05-08T00:14:02.603Z,3.63
2023-05-08T00:19:04.993Z,3.17
2023-05-08T00:24:07.562Z,3.35
2023-05-08T00:29:09.853Z,3.17
2023-05-08T00:34:12.080Z,2.35
2023-05-08T00:39:14.327Z,2.05
2023-05-08T00:44:17.177Z,2.33
2023-05-08T00:49:19.820Z,2.30
2023-05-08T00:54:22.737Z,2.47
2023-05-08T00:59:26.660Z,2.92
2023-05-08T01:04:32.323Z,3.10
2023-05-08T01:09:34.885Z,3.42
2023-05-08T01:14:50.661Z,2.65
2023-05-08T01:20:30.174Z,2.92
2023-05-08T01:26:09.192Z,3.58
2023-05-08T01:31:23.276Z,4.13
2023-05-08T01:36:38.120Z,2.70
2023-05-08T01:41:47.069Z,2.95
2023-05-08T01:46:51.500Z,2.38
2023-05-08T01:52:43.659Z,4.40
2023-05-08T01:57:49.718Z,3.25
2023-05-08T02:02:55.300Z,3.80
2023-05-08T02:07:59.215Z,3.95
2023-05-08T02:13:03.136Z,4.63
2023-05-08T02:18:07.629Z,4.78
2023-05-08T02:23:10.777Z,4.22
2023-05-08T02:28:13.301Z,4.47
2023-05-08T02:33:17.229Z,4.65
2023-05-08T02:38:22.140Z,4.38
2023-05-08T02:43:24.894Z,4.05
2023-05-08T02:48:34.873Z,4.72
2023-05-08T02:53:46.994Z,4.38
2023-05-08T02:59:19.445Z,4.35
2023-05-08T03:04:32.705Z,4.18
2023-05-08T03:09:42.364Z,4.38
2023-05-08T03:20:20.164Z,4.57
2023-05-08T03:25:23.868Z,4.70
2023-05-08T03:30:28.043Z,4.75
2023-05-08T03:35:32.155Z,4.63
2023-05-08T03:40:37.347Z,4.80
2023-05-08T03:45:41.943Z,5.53
2023-05-08T03:50:45.351Z,7.05
2023-05-08T03:55:47.712Z,6.00
2023-05-08T04:00:49.899Z,4.47
2023-05-08T04:06:48.534Z,6.57
2023-05-08T04:12:15.471Z,5.40
2023-05-08T04:17:41.939Z,5.03
2023-05-08T04:22:47.186Z,5.20
2023-05-08T04:27:54.714Z,5.13
2023-05-08T04:32:58.519Z,6.47
2023-05-08T04:38:01.311Z,5.90
2023-05-08T04:43:03.778Z,6.18
2023-05-08T04:48:06.779Z,4.15
2023-05-08T04:53:09.700Z,4.95
2023-05-08T04:58:11.912Z,5.25
2023-05-08T05:03:14.634Z,4.38
2023-05-08T05:08:16.965Z,4.78
2023-05-08T05:13:20.431Z,4.30
2023-05-08T05:18:22.818Z,4.80
2023-05-08T05:23:25.049Z,4.05
2023-05-08T05:28:27.408Z,4.40
2023-05-08T05:33:29.856Z,4.57
2023-05-08T05:38:32.202Z,4.88
2023-05-08T05:43:34.405Z,5.78
2023-05-08T05:48:36.718Z,4.43
2023-05-08T05:53:38.944Z,5.28
2023-05-08T05:58:45.160Z,5.45
2023-05-08T06:03:47.945Z,5.75
2023-05-08T06:08:50.357Z,5.40
2023-05-08T06:13:52.554Z,5.78
2023-05-08T06:18:54.845Z,5.60
2023-05-08T06:23:57.141Z,5.30
2023-05-08T06:28:59.387Z,5.65
2023-05-08T06:34:01.649Z,5.10
2023-05-08T06:39:07.887Z,4.40
2023-05-08T06:44:10.259Z,3.40
2023-05-08T06:49:12.457Z,4.07
2023-05-08T06:54:14.668Z,3.92
2023-05-08T06:59:17.024Z,2.90
2023-05-08T07:04:19.624Z,2.58
2023-05-08T07:09:22.070Z,3.30
2023-05-08T07:14:24.242Z,3.05
2023-05-08T07:19:26.597Z,3.67
2023-05-08T07:24:28.890Z,3.40
2023-05-08T07:29:31.257Z,3.22
2023-05-08T07:34:35.336Z,3.20
2023-05-08T07:39:37.717Z,2.50
2023-05-08T07:44:53.215Z,2.65
2023-05-08T07:49:56.544Z,2.38
2023-05-08T07:54:59.162Z,2.50
2023-05-08T08:00:06.466Z,2.35
2023-05-08T08:05:09.555Z,2.97
2023-05-08T08:10:12.106Z,2.75
2023-05-08T08:15:14.889Z,2.58
2023-05-08T08:20:17.538Z,2.72
2023-05-08T08:25:19.849Z,2.20
2023-05-08T08:30:22.228Z,2.67
2023-05-08T08:35:29.819Z,2.22
2023-05-08T08:40:32.196Z,1.95
2023-05-08T08:45:34.594Z,2.30
2023-05-08T08:50:40.902Z,2.20
2023-05-08T08:55:47.193Z,2.22
2023-05-08T09:00:50.596Z,2.63
2023-05-08T09:05:54.402Z,2.70
2023-05-08T09:10:56.830Z,2.28
2023-05-08T09:16:00.127Z,2.35
2023-05-08T09:21:03.035Z,2.17
2023-05-08T09:26:05.425Z,2.63
2023-05-08T09:31:07.747Z,2.83
2023-05-08T09:36:29.032Z,2.20
2023-05-08T09:41:31.621Z,2.00
2023-05-08T09:46:34.792Z,2.45
2023-05-08T09:51:38.530Z,2.10
2023-05-08T09:56:41.630Z,2.30
2023-05-08T10:01:44.591Z,2.33
2023-05-08T10:06:58.128Z,2.28
2023-05-08T10:12:00.795Z,2.20
2023-05-08T10:17:10.677Z,2.13
2023-05-08T10:22:17.408Z,2.72
2023-05-08T10:27:31.034Z,2.38
2023-05-08T10:32:41.051Z,2.15
2023-05-08T10:37:48.516Z,2.15
2023-05-08T10:42:58.756Z,2.05
2023-05-08T10:48:22.226Z,2.00
2023-05-08T10:53:45.013Z,2.92
2023-05-08T10:58:56.539Z,2.17
2023-05-08T11:03:59.152Z,2.42
2023-05-08T11:09:01.484Z,2.13
2023-05-08T11:14:09.733Z,2.22
2023-05-08T11:19:20.063Z,2.13
2023-05-08T11:24:36.363Z,2.20
2023-05-08T11:29:39.349Z,2.25
2023-05-08T11:34:44.575Z,2.42
2023-05-08T11:39:50.690Z,2.28
2023-05-08T11:45:08.252Z,2.28
2023-05-08T11:50:16.616Z,2.15
2023-05-08T11:55:20.544Z,2.28
2023-05-08T12:00:23.223Z,2.33
2023-05-08T12:05:28.778Z,2.17
2023-05-08T12:10:31.026Z,2.20
2023-05-08T12:15:33.916Z,2.15
2023-05-08T12:20:36.195Z,1.90
2023-05-08T12:25:39.673Z,2.15
2023-05-08T12:30:42.616Z,2.58
2023-05-08T12:35:45.356Z,2.00
2023-05-08T12:40:53.502Z,2.53
2023-05-08T12:51:07.826Z,2.50
2023-05-08T12:56:10.174Z,2.35
2023-05-08T13:01:17.084Z,2.45
2023-05-08T13:06:24.052Z,2.10
2023-05-08T13:11:34.712Z,2.33
2023-05-08T13:16:48.098Z,2.25
2023-05-08T13:21:50.625Z,2.15
2023-05-08T13:26:52.939Z,1.95
2023-05-08T13:31:55.320Z,2.25
2023-05-08T13:36:58.122Z,2.22
2023-05-08T13:42:00.758Z,2.00
2023-05-08T13:47:03.197Z,1.83
2023-05-08T13:52:05.836Z,1.75
2023-05-08T13:57:08.670Z,2.00
2023-05-08T14:02:11.296Z,1.60
2023-05-08T14:07:13.902Z,1.83
2023-05-08T14:12:16.379Z,2.00
2023-05-08T14:17:18.602Z,1.92
2023-05-08T14:22:20.839Z,4.30
2023-05-08T14:27:23.292Z,5.32
2023-05-08T14:32:28.765Z,3.03
2023-05-08T14:37:34.286Z,2.65
2023-05-08T14:42:36.965Z,2.67
2023-05-08T14:47:40.003Z,2.25
2023-05-08T14:52:42.323Z,2.35
2023-05-08T14:57:44.506Z,4.07
2023-05-08T15:02:47.025Z,2.20
2023-05-08T15:07:51.237Z,2.13
2023-05-08T15:12:53.579Z,1.80
2023-05-08T15:17:56.040Z,1.70
2023-05-08T15:22:58.307Z,2.50
2023-05-08T15:28:01.105Z,2.10
2023-05-08T15:33:03.725Z,2.78
2023-05-08T15:38:07.905Z,1.95
2023-05-08T15:43:10.232Z,2.58
2023-05-08T15:48:13.026Z,2.25
2023-05-08T15:53:15.430Z,2.42
2023-05-08T15:58:18.209Z,2.30
2023-05-08T16:03:20.838Z,2.28
2023-05-08T16:08:23.510Z,2.38
2023-05-08T16:13:25.770Z,2.65
2023-05-08T16:18:28.049Z,2.80
2023-05-08T16:23:30.308Z,1.90
2023-05-08T16:28:32.574Z,2.85
2023-05-08T16:33:34.756Z,2.63
2023-05-08T16:38:37.028Z,2.45
2023-05-08T16:43:39.403Z,3.22
2023-05-08T16:48:42.668Z,2.60
2023-05-08T16:53:44.898Z,2.88
2023-05-08T16:58:47.556Z,2.15
2023-05-08T17:03:49.852Z,2.13
2023-05-08T17:08:52.108Z,2.35
2023-05-08T17:13:54.286Z,2.60
2023-05-08T17:18:56.585Z,2.67
2023-05-08T17:24:02.163Z,2.50
2023-05-08T17:29:04.396Z,3.00
2023-05-08T17:34:06.625Z,3.10
2023-05-08T17:39:08.930Z,2.95
2023-05-08T17:44:11.301Z,2.42
2023-05-08T17:49:15.869Z,2.30
2023-05-08T17:54:19.506Z,3.08
2023-05-08T17:59:21.779Z,2.30
2023-05-08T18:04:24.817Z,3.28
2023-05-08T18:09:27.045Z,3.30
2023-05-08T18:14:32.920Z,2.40
2023-05-08T18:19:35.124Z,2.80
2023-05-08T18:24:37.341Z,2.35
2023-05-08T18:29:40.822Z,2.60
2023-05-08T18:34:43.036Z,2.78
2023-05-08T18:39:45.219Z,2.90
2023-05-08T18:44:47.482Z,3.15
2023-05-08T18:49:52.831Z,2.70
2023-05-08T18:54:55.059Z,3.30
2023-05-08T18:59:57.238Z,3.20
2023-05-08T19:04:59.510Z,2.70
2023-05-08T19:10:01.788Z,3.17
2023-05-08T19:15:04.200Z,3.80
2023-05-08T19:20:07.385Z,3.10
2023-05-08T19:25:10.328Z,3.60
2023-05-08T19:30:13.021Z,3.88
2023-05-08T19:35:15.352Z,3.03
2023-05-08T19:40:17.743Z,2.72
2023-05-08T19:45:20.036Z,2.90
2023-05-08T19:50:22.578Z,3.10
2023-05-08T19:55:24.855Z,2.53
2023-05-08T20:00:27.034Z,2.38
2023-05-08T20:05:29.445Z,2.55
2023-05-08T20:10:31.670Z,2.45
2023-05-08T20:15:34.028Z,1.90
2023-05-08T20:20:36.341Z,1.70
2023-05-08T20:25:38.644Z,1.52
2023-05-08T20:30:40.917Z,1.92
2023-05-08T20:35:43.338Z,1.40
2023-05-08T20:40:45.680Z,1.98
2023-05-08T20:45:49.609Z,1.63
2023-05-08T20:50:51.970Z,1.77
2023-05-08T20:56:01.154Z,1.73
2023-05-08T21:01:04.579Z,1.92
2023-05-08T21:06:07.326Z,1.90
2023-05-08T21:11:09.625Z,1.65
2023-05-08T21:16:12.416Z,1.90
2023-05-08T21:21:16.244Z,2.53
2023-05-08T21:26:20.318Z,1.75
2023-05-08T21:31:23.000Z,3.00
2023-05-08T21:36:25.350Z,1.98
2023-05-08T21:41:29.147Z,3.00
2023-05-08T21:46:31.493Z,2.65
2023-05-08T21:51:33.898Z,2.78
2023-05-08T21:56:36.108Z,2.45
2023-05-08T22:01:38.382Z,2.60
2023-05-08T22:06:40.667Z,2.65
2023-05-08T22:11:43.006Z,2.65
2023-05-08T22:16:45.337Z,2.53
2023-05-08T22:21:47.692Z,2.55
2023-05-08T22:26:49.967Z,2.25
2023-05-08T22:31:52.537Z,2.20
2023-05-08T22:36:54.765Z,2.20
2023-05-08T22:41:57.275Z,2.40
2023-05-08T22:46:59.642Z,2.40
2023-05-08T22:52:02.025Z,2.55
2023-05-08T22:57:04.384Z,2.20
2023-05-08T23:02:06.561Z,2.40
2023-05-08T23:07:08.785Z,2.58
2023-05-08T23:12:11.086Z,2.45
2023-05-08T23:17:14.372Z,2.70
2023-05-08T23:22:16.625Z,2.60
2023-05-08T23:27:18.826Z,2.00
2023-05-08T23:32:21.209Z,2.03
2023-05-08T23:37:23.406Z,2.60
2023-05-08T23:42:25.669Z,2.13
2023-05-08T23:47:27.931Z,2.33
2023-05-08T23:52:30.247Z,2.38
2023-05-08T23:57:32.479Z,2.40
